Time;durP1;ratioP1;P1;durP2;ratioP2;P2;SDS_P1;SDS_P2;PMS_P1;PMS_P2;Temp;Humidity;BMP_temperature;BMP_pressure;BME280_temperature;BME280_humidity;BME280_pressure;Samples;Min_cycle;Max_cycle;Signal;HPM_P1;HPM_P2
2022/08/01 00:00:40;;;;;;;6.73;5.00;;;23.10;99.90;;;;;;5044291;28;20210;-65
2022/08/01 00:03:06;;;;;;;12.03;5.50;;;23.10;99.90;;;;;;5030671;28;20198;-65
2022/08/01 00:05:32;;;;;;;6.20;4.83;;;22.90;99.90;;;;;;5028529;28;20218;-65
2022/08/01 00:07:58;;;;;;;16.33;6.63;;;23.00;99.90;;;;;;5028127;28;20579;-63
2022/08/01 00:10:24;;;;;;;5.47;4.93;;;23.00;99.90;;;;;;5035572;28;20494;-63
2022/08/01 00:12:50;;;;;;;6.17;5.57;;;23.00;99.90;;;;;;5049335;28;20496;-63
2022/08/01 00:15:17;;;;;;;6.33;5.20;;;22.90;99.90;;;;;;5036898;28;20573;-63
2022/08/01 00:17:43;;;;;;;6.93;5.40;;;22.90;99.90;;;;;;5032434;28;20412;-64
2022/08/01 00:20:12;;;;;;;5.97;5.37;;;22.90;99.90;;;;;;5048772;28;20805;-64
2022/08/01 00:22:38;;;;;;;6.30;5.70;;;22.90;99.90;;;;;;5047220;28;20936;-63
2022/08/01 00:25:04;;;;;;;13.27;5.97;;;22.90;99.90;;;;;;5037652;28;20425;-64
2022/08/01 00:27:31;;;;;;;30.43;6.33;;;22.90;99.90;;;;;;5044507;28;20178;-64
2022/08/01 00:29:57;;;;;;;7.40;5.20;;;22.90;99.90;;;;;;5048912;28;20414;-63
2022/08/01 00:32:23;;;;;;;4.93;4.40;;;22.90;99.90;;;;;;5046292;28;20420;-64
2022/08/01 00:34:49;;;;;;;5.77;5.17;;;23.00;99.90;;;;;;5044914;28;20551;-66
2022/08/01 00:37:15;;;;;;;4.93;4.43;;;23.00;99.90;;;;;;5039934;28;20190;-65
2022/08/01 00:39:40;;;;;;;6.00;4.83;;;22.90;99.90;;;;;;5049217;28;20179;-65
2022/08/01 00:42:08;;;;;;;4.13;3.73;;;22.90;99.90;;;;;;5037137;28;20534;-66
2022/08/01 00:44:34;;;;;;;8.37;4.63;;;22.80;99.90;;;;;;5041459;28;20178;-66
2022/08/01 00:47:01;;;;;;;5.30;4.60;;;22.90;99.90;;;;;;5049297;28;20414;-66
2022/08/01 00:49:27;;;;;;;6.80;4.07;;;22.80;99.90;;;;;;5047840;28;20442;-66
2022/08/01 00:51:53;;;;;;;26.83;5.17;;;22.80;99.90;;;;;;5046893;28;20488;-66
2022/08/01 00:54:19;;;;;;;11.90;4.50;;;22.80;99.90;;;;;;5029574;28;20442;-66
2022/08/01 00:56:45;;;;;;;8.63;3.90;;;22.90;99.90;;;;;;5039233;28;20444;-64
2022/08/01 00:59:16;;;;;;;7.67;4.07;;;22.80;99.90;;;;;;5048416;28;20415;-65
2022/08/01 01:01:42;;;;;;;5.03;4.37;;;22.80;99.90;;;;;;5031058;28;20979;-65
2022/08/01 01:04:08;;;;;;;4.57;3.77;;;22.90;99.90;;;;;;5051964;28;20401;-65
2022/08/01 01:06:45;;;;;;;6.80;3.90;;;22.90;99.90;;;;;;5053727;28;20167;-65
2022/08/01 01:09:23;;;;;;;5.10;4.00;;;22.80;99.90;;;;;;5034147;28;20413;-64
2022/08/01 01:12:02;;;;;;;6.80;4.40;;;22.80;99.90;;;;;;5033513;28;20498;-64
2022/08/01 01:14:44;;;;;;;4.53;3.57;;;22.90;99.90;;;;;;5033650;28;20913;-64
2022/08/01 01:17:14;;;;;;;5.53;3.83;;;22.90;99.90;;;;;;5032223;28;20409;-65
2022/08/01 01:19:51;;;;;;;10.43;4.00;;;22.90;99.90;;;;;;5043329;28;20417;-66
2022/08/01 01:22:42;;;;;;;3.97;3.67;;;22.80;99.90;;;;;;5052128;28;20460;-64
2022/08/01 01:25:22;;;;;;;3.90;3.60;;;22.90;99.90;;;;;;5038922;28;20859;-65
2022/08/01 01:28:02;;;;;;;4.93;4.03;;;22.80;99.90;;;;;;5038862;28;20758;-65
2022/08/01 01:30:30;;;;;;;10.37;4.27;;;22.70;99.90;;;;;;5016927;28;20938;-66
2022/08/01 01:33:01;;;;;;;4.53;3.77;;;22.60;99.90;;;;;;5036128;28;20452;-65
2022/08/01 01:35:31;;;;;;;5.10;3.67;;;22.60;99.90;;;;;;5033315;28;20452;-65
2022/08/01 01:38:13;;;;;;;4.97;3.53;;;22.70;99.90;;;;;;5049987;28;20481;-65
2022/08/01 01:40:41;;;;;;;30.13;5.63;;;22.70;99.90;;;;;;5034695;28;20855;-65
2022/08/01 01:43:11;;;;;;;25.67;6.10;;;22.70;99.90;;;;;;5052714;28;20468;-65
2022/08/01 01:45:38;;;;;;;7.00;4.03;;;22.60;99.90;;;;;;5034247;28;20571;-66
2022/08/01 01:48:07;;;;;;;15.63;4.60;;;22.60;99.90;;;;;;5053221;28;20458;-66
2022/08/01 01:50:35;;;;;;;5.13;3.93;;;22.60;99.90;;;;;;5052038;28;20437;-64
2022/08/01 01:53:03;;;;;;;7.53;3.80;;;22.60;99.90;;;;;;5051759;28;20508;-64
2022/08/01 01:55:30;;;;;;;6.40;3.40;;;22.50;99.90;;;;;;5052040;28;20444;-64
2022/08/01 01:57:58;;;;;;;10.00;3.73;;;22.50;99.90;;;;;;5043147;28;20433;-64
2022/08/01 02:00:24;;;;;;;14.60;5.00;;;22.40;99.90;;;;;;5051706;28;20949;-66
2022/08/01 02:02:52;;;;;;;6.13;3.60;;;22.50;99.90;;;;;;5051226;28;20441;-64
2022/08/01 02:05:20;;;;;;;4.53;3.50;;;22.50;99.90;;;;;;5051651;28;20406;-64
2022/08/01 02:07:47;;;;;;;4.63;3.70;;;22.50;99.90;;;;;;5050566;28;20420;-65
2022/08/01 02:10:15;;;;;;;5.20;3.40;;;22.50;99.90;;;;;;5045314;28;20459;-65
2022/08/01 02:12:45;;;;;;;4.83;3.63;;;22.50;99.90;;;;;;5031744;28;20417;-66
2022/08/01 02:15:12;;;;;;;5.90;3.53;;;22.50;99.90;;;;;;5032796;28;20565;-65
2022/08/01 02:17:43;;;;;;;3.83;3.53;;;22.50;99.90;;;;;;5032271;28;20468;-65
2022/08/01 02:20:10;;;;;;;13.33;3.97;;;22.50;99.90;;;;;;5032747;28;20391;-65
2022/08/01 02:22:47;;;;;;;8.33;3.47;;;22.40;99.90;;;;;;5032493;28;20461;-65
2022/08/01 02:25:25;;;;;;;7.50;3.80;;;22.30;99.90;;;;;;5033897;28;20480;-66
2022/08/01 02:28:04;;;;;;;6.73;3.63;;;22.20;99.90;;;;;;5034440;28;20516;-66
2022/08/01 02:30:35;;;;;;;4.00;3.20;;;22.30;99.90;;;;;;5035746;28;20448;-65
2022/08/01 02:33:16;;;;;;;3.50;3.20;;;22.20;99.90;;;;;;5043749;28;20434;-65
2022/08/01 02:35:45;;;;;;;4.53;3.27;;;22.30;99.90;;;;;;5052918;28;20436;-66
2022/08/01 02:38:13;;;;;;;3.10;2.90;;;22.30;99.90;;;;;;5041353;28;20910;-65
2022/08/01 02:40:45;;;;;;;4.10;3.20;;;22.30;99.90;;;;;;5056297;28;20468;-65
2022/08/01 02:43:15;;;;;;;4.00;3.60;;;22.30;99.90;;;;;;5055118;28;21001;-65
2022/08/01 02:45:47;;;;;;;3.90;3.50;;;22.30;99.90;;;;;;5049302;28;20921;-65
2022/08/01 02:48:15;;;;;;;6.97;3.77;;;22.20;99.90;;;;;;5050115;28;20422;-65
2022/08/01 02:50:45;;;;;;;9.30;3.63;;;22.20;99.90;;;;;;5050133;28;20429;-65
2022/08/01 02:53:13;;;;;;;15.27;3.83;;;22.10;99.90;;;;;;5050515;28;20509;-66
2022/08/01 02:55:40;;;;;;;6.73;3.63;;;22.20;99.90;;;;;;5050120;28;20876;-65
2022/08/01 02:58:08;;;;;;;8.43;4.23;;;22.20;99.90;;;;;;5041406;28;20429;-66
2022/08/01 03:00:35;;;;;;;13.67;4.23;;;22.20;99.90;;;;;;5066813;22;20426;-69
2022/08/01 03:03:03;;;;;;;4.00;3.60;;;22.30;99.90;;;;;;5011109;28;20550;-71
2022/08/01 03:05:30;;;;;;;3.90;3.50;;;22.30;99.90;;;;;;5010855;28;20498;-69
2022/08/01 03:07:57;;;;;;;3.80;3.50;;;22.30;99.90;;;;;;5009585;28;20405;-70
2022/08/01 03:10:26;;;;;;;14.00;4.40;;;22.20;99.90;;;;;;5010450;28;20407;-73
2022/08/01 03:12:52;;;;;;;15.30;4.40;;;22.10;99.90;;;;;;5011014;28;20411;-68
2022/08/01 03:15:20;;;;;;;21.00;5.37;;;22.20;99.90;;;;;;5010372;28;20903;-72
2022/08/01 03:17:47;;;;;;;16.07;4.90;;;22.10;99.90;;;;;;5010239;28;20912;-71
2022/08/01 03:20:16;;;;;;;16.33;4.40;;;22.00;99.90;;;;;;5010533;28;20407;-70
2022/08/01 03:22:44;;;;;;;23.17;4.97;;;22.00;99.90;;;;;;5010737;28;20458;-69
2022/08/01 03:25:13;;;;;;;24.10;5.43;;;22.10;99.90;;;;;;5023003;28;20480;-70
2022/08/01 03:27:41;;;;;;;14.90;4.57;;;21.90;99.90;;;;;;5028498;28;20410;-70
2022/08/01 03:30:10;;;;;;;13.30;4.80;;;22.00;99.90;;;;;;5010135;28;20460;-70
2022/08/01 03:32:36;;;;;;;12.17;4.20;;;22.00;99.90;;;;;;5007418;28;20505;-69
2022/08/01 03:35:02;;;;;;;17.73;5.80;;;21.90;99.90;;;;;;5009450;28;20473;-70
2022/08/01 03:37:44;;;;;;;13.00;4.90;;;21.90;99.90;;;;;;5008664;28;20180;-70
2022/08/01 03:40:17;;;;;;;7.60;4.10;;;22.00;99.90;;;;;;5008829;28;20439;-70
2022/08/01 03:42:49;;;;;;;28.73;7.50;;;21.90;99.90;;;;;;4992361;28;20450;-70
2022/08/01 03:45:27;;;;;;;35.10;7.30;;;21.80;99.90;;;;;;5010114;28;20407;-70
2022/08/01 03:48:03;;;;;;;13.77;5.40;;;21.80;99.90;;;;;;5009822;28;20438;-69
2022/08/01 03:50:33;;;;;;;16.73;5.80;;;21.70;99.90;;;;;;5009791;28;20492;-71
2022/08/01 03:53:01;;;;;;;10.10;4.97;;;21.70;99.90;;;;;;5009552;28;20924;-68
2022/08/01 03:55:29;;;;;;;17.93;4.60;;;21.60;99.90;;;;;;5009847;28;20504;-70
2022/08/01 03:57:56;;;;;;;12.03;4.60;;;21.70;99.90;;;;;;5009346;28;20438;-70
2022/08/01 04:00:24;;;;;;;5.27;4.70;;;21.60;99.90;;;;;;5009168;28;20419;-71
2022/08/01 04:02:50;;;;;;;16.87;4.80;;;21.50;99.90;;;;;;5009991;28;20836;-70
2022/08/01 04:05:17;;;;;;;46.67;7.20;;;21.50;99.90;;;;;;5009802;28;20441;-70
2022/08/01 04:07:49;;;;;;;20.73;6.10;;;21.60;99.90;;;;;;5008917;28;20503;-70
2022/08/01 04:10:16;;;;;;;18.40;5.87;;;21.60;99.90;;;;;;5009346;28;20418;-70
2022/08/01 04:12:42;;;;;;;29.03;6.50;;;21.60;99.90;;;;;;5010018;28;20438;-70
2022/08/01 04:15:08;;;;;;;24.03;6.50;;;21.60;99.90;;;;;;5012795;28;20399;-70
2022/08/01 04:17:34;;;;;;;18.43;5.23;;;21.50;99.90;;;;;;5010523;28;20465;-70
2022/08/01 04:20:00;;;;;;;39.73;8.37;;;21.50;99.90;;;;;;5009605;28;20415;-70
2022/08/01 04:22:26;;;;;;;19.43;5.83;;;21.40;99.90;;;;;;5009794;28;20730;-71
2022/08/01 04:24:56;;;;;;;24.40;7.10;;;21.30;99.90;;;;;;5009850;28;20192;-69
2022/08/01 04:27:28;;;;;;;20.20;7.10;;;21.30;99.90;;;;;;5009790;28;20407;-71
2022/08/01 04:29:57;;;;;;;13.33;5.57;;;21.40;99.90;;;;;;5010013;28;20400;-72
2022/08/01 04:32:25;;;;;;;8.30;4.90;;;21.40;99.90;;;;;;5009552;28;20435;-71
2022/08/01 04:34:55;;;;;;;10.63;5.93;;;21.40;99.90;;;;;;5010087;28;20415;-70
2022/08/01 04:37:23;;;;;;;10.23;6.40;;;21.50;99.90;;;;;;5003739;28;20420;-73
2022/08/01 04:39:52;;;;;;;7.57;5.70;;;21.60;99.90;;;;;;4996754;28;20423;-72
2022/08/01 04:42:18;;;;;;;18.13;6.33;;;21.60;99.90;;;;;;5013291;28;20463;-72
2022/08/01 04:44:45;;;;;;;34.13;8.87;;;21.90;99.90;;;;;;5013925;28;20732;-72
2022/08/01 04:47:13;;;;;;;27.73;6.90;;;22.20;99.90;;;;;;5014440;28;20923;-70
2022/08/01 04:49:40;;;;;;;17.87;6.53;;;22.10;99.90;;;;;;5015524;28;20454;-69
2022/08/01 04:52:06;;;;;;;45.07;8.00;;;22.10;99.90;;;;;;4997226;28;20434;-70
2022/08/01 04:54:36;;;;;;;26.33;6.77;;;22.40;99.90;;;;;;5015057;28;20945;-69
2022/08/01 04:57:03;;;;;;;14.60;7.60;;;22.80;99.90;;;;;;5013178;28;20477;-70
2022/08/01 04:59:39;;;;;;;24.80;6.10;;;22.90;99.90;;;;;;5001384;28;20486;-68
2022/08/01 05:02:09;;;;;;;35.40;7.20;;;22.60;99.90;;;;;;4993110;28;20466;-68
2022/08/01 05:04:35;;;;;;;38.07;8.70;;;22.40;99.90;;;;;;5004922;28;20414;-69
2022/08/01 05:07:01;;;;;;;21.57;6.83;;;22.20;99.90;;;;;;5012621;28;20478;-70
2022/08/01 05:09:27;;;;;;;21.37;8.47;;;22.10;99.90;;;;;;5012474;28;20906;-69
2022/08/01 05:11:53;;;;;;;22.40;6.53;;;22.00;99.90;;;;;;5013346;28;20450;-69
2022/08/01 05:14:18;;;;;;;16.43;7.20;;;22.20;99.90;;;;;;5013576;28;20263;-69
2022/08/01 05:16:45;;;;;;;19.50;6.00;;;22.60;99.90;;;;;;5014049;28;20453;-69
2022/08/01 05:19:11;;;;;;;22.23;6.67;;;22.70;99.90;;;;;;5012751;28;20251;-73
2022/08/01 05:21:37;;;;;;;7.93;5.53;;;22.60;99.90;;;;;;4995065;28;20548;-70
2022/08/01 05:24:05;;;;;;;21.50;6.97;;;22.50;99.90;;;;;;5012693;28;20410;-69
2022/08/01 05:26:30;;;;;;;19.53;6.90;;;22.50;99.90;;;;;;5012960;28;20768;-70
2022/08/01 05:28:56;;;;;;;9.30;6.20;;;22.80;99.90;;;;;;5012295;28;20417;-71
2022/08/01 05:31:22;;;;;;;35.00;6.60;;;22.70;99.90;;;;;;5009135;28;20195;-69
2022/08/01 05:33:47;;;;;;;29.33;6.60;;;22.80;99.90;;;;;;5012556;28;20216;-70
2022/08/01 05:36:13;;;;;;;24.80;6.27;;;22.80;99.90;;;;;;5011934;28;20535;-69
2022/08/01 05:38:39;;;;;;;11.73;6.60;;;22.70;99.90;;;;;;5011749;28;20176;-71
2022/08/01 05:41:05;;;;;;;11.77;5.70;;;22.70;99.90;;;;;;5012066;28;20208;-71
2022/08/01 05:43:31;;;;;;;15.53;5.27;;;22.80;99.90;;;;;;5012477;28;20274;-70
2022/08/01 05:45:58;;;;;;;17.97;6.30;;;23.10;99.90;;;;;;5011527;28;20506;-71
2022/08/01 05:48:24;;;;;;;16.67;7.20;;;23.40;99.90;;;;;;5010368;28;20164;-70
2022/08/01 05:50:50;;;;;;;11.30;6.07;;;23.70;99.90;;;;;;5011358;28;20430;-70
2022/08/01 05:53:16;;;;;;;11.60;5.50;;;24.00;99.90;;;;;;5012406;28;20423;-69
2022/08/01 05:55:42;;;;;;;11.03;5.27;;;24.20;99.90;;;;;;5012062;28;20809;-69
2022/08/01 05:58:08;;;;;;;17.70;6.30;;;24.10;99.90;;;;;;5011124;28;20975;-71
2022/08/01 06:00:34;;;;;;;21.50;6.90;;;24.40;99.90;;;;;;5016517;28;20539;-70
2022/08/01 06:02:59;;;;;;;20.83;6.10;;;24.40;99.90;;;;;;5031540;28;20783;-69
2022/08/01 06:05:25;;;;;;;16.43;5.70;;;24.50;99.90;;;;;;5031149;28;20168;-72
2022/08/01 06:07:51;;;;;;;22.03;6.27;;;24.60;99.90;;;;;;5016827;28;20245;-72
2022/08/01 06:10:17;;;;;;;11.03;5.20;;;24.80;99.90;;;;;;5011223;28;20168;-70
2022/08/01 06:12:42;;;;;;;17.20;6.50;;;24.80;99.90;;;;;;4993791;28;20195;-70
2022/08/01 06:15:08;;;;;;;19.60;6.43;;;24.90;99.90;;;;;;5011169;28;20172;-69
2022/08/01 06:17:34;;;;;;;15.00;6.13;;;24.90;99.90;;;;;;5011470;28;20642;-72
2022/08/01 06:20:00;;;;;;;16.47;6.07;;;25.10;99.90;;;;;;5011076;28;20467;-73
2022/08/01 06:22:26;;;;;;;6.70;5.70;;;25.20;99.90;;;;;;5010424;28;20588;-70
2022/08/01 06:24:51;;;;;;;15.77;5.63;;;25.20;99.90;;;;;;5011464;28;20199;-70
2022/08/01 06:27:18;;;;;;;14.20;5.80;;;25.30;99.90;;;;;;5011320;28;20290;-71
2022/08/01 06:29:43;;;;;;;6.80;5.60;;;25.60;99.90;;;;;;5007932;28;20179;-68
2022/08/01 06:32:09;;;;;;;12.07;5.43;;;25.60;99.90;;;;;;5008268;28;20546;-68
2022/08/01 06:34:35;;;;;;;7.50;5.03;;;25.70;99.90;;;;;;4993063;28;20519;-71
2022/08/01 06:37:01;;;;;;;16.40;5.17;;;25.60;99.90;;;;;;5010542;28;20318;-69
2022/08/01 06:39:27;;;;;;;32.37;7.27;;;25.80;99.90;;;;;;5011726;28;20884;-68
2022/08/01 06:41:53;;;;;;;13.77;5.37;;;26.00;99.90;;;;;;5012697;28;20200;-69
2022/08/01 06:44:18;;;;;;;8.40;4.90;;;26.00;99.90;;;;;;5010664;28;20307;-70
2022/08/01 06:46:44;;;;;;;7.67;4.83;;;26.00;99.90;;;;;;4993390;28;20176;-67
2022/08/01 06:49:10;;;;;;;21.47;5.43;;;25.80;99.90;;;;;;5003122;28;20184;-67
2022/08/01 06:51:36;;;;;;;21.70;5.70;;;26.00;99.90;;;;;;5007804;28;20200;-69
2022/08/01 06:54:02;;;;;;;42.33;7.50;;;26.50;99.90;;;;;;5009736;28;20207;-68
2022/08/01 06:56:27;;;;;;;38.00;6.60;;;26.40;99.90;;;;;;5010010;28;20655;-68
2022/08/01 06:58:56;;;;;;;27.17;5.77;;;26.50;99.90;;;;;;5008140;28;20218;-68
2022/08/01 07:01:21;;;;;;;28.43;6.83;;;26.50;99.90;;;;;;5008778;28;20233;-67
2022/08/01 07:03:47;;;;;;;14.20;5.20;;;26.50;99.90;;;;;;5006656;28;20567;-67
2022/08/01 07:06:14;;;;;;;12.57;5.00;;;26.70;99.90;;;;;;5008558;28;20176;-65
2022/08/01 07:08:40;;;;;;;11.23;4.87;;;26.30;99.90;;;;;;5008088;28;20207;-69
2022/08/01 07:11:06;;;;;;;21.10;5.30;;;26.60;99.90;;;;;;5008705;28;20551;-67
2022/08/01 07:13:32;;;;;;;14.13;5.10;;;27.00;99.90;;;;;;5009161;28;20522;-71
2022/08/01 07:15:58;;;;;;;11.27;4.43;;;27.00;99.90;;;;;;5009019;28;20175;-68
2022/08/01 07:18:24;;;;;;;22.60;5.70;;;27.40;99.90;;;;;;5009081;28;20829;-68
2022/08/01 07:20:50;;;;;;;66.93;10.43;;;27.60;99.90;;;;;;5010828;28;20187;-68
2022/08/01 07:23:16;;;;;;;24.83;6.67;;;27.70;99.90;;;;;;5012598;28;20286;-65
2022/08/01 07:25:42;;;;;;;10.13;4.60;;;27.70;99.90;;;;;;5011649;28;20456;-69
2022/08/01 07:28:08;;;;;;;10.17;3.70;;;27.40;99.10;;;;;;5008843;28;20430;-69
2022/08/01 07:30:34;;;;;;;34.80;5.87;;;27.10;98.80;;;;;;5010243;28;20772;-69
2022/08/01 07:33:01;;;;;;;15.67;4.87;;;27.30;98.60;;;;;;5006483;28;20418;-70
2022/08/01 07:35:26;;;;;;;9.07;4.70;;;27.60;98.80;;;;;;4999259;28;20924;-68
2022/08/01 07:37:53;;;;;;;10.37;4.90;;;27.80;97.20;;;;;;4980117;28;20454;-66
2022/08/01 07:40:19;;;;;;;9.17;4.40;;;27.90;96.80;;;;;;4997321;28;20191;-69
2022/08/01 07:42:46;;;;;;;9.10;3.87;;;27.70;95.40;;;;;;5013514;28;20853;-69
2022/08/01 07:45:12;;;;;;;14.27;4.80;;;27.20;94.50;;;;;;5006713;28;20419;-71
2022/08/01 07:47:38;;;;;;;7.33;4.30;;;26.80;94.70;;;;;;5005276;28;20423;-69
2022/08/01 07:50:05;;;;;;;30.97;6.20;;;26.70;94.40;;;;;;5009615;28;20945;-71
2022/08/01 07:52:31;;;;;;;21.43;5.53;;;26.40;94.20;;;;;;5009707;28;20192;-70
2022/08/01 07:54:58;;;;;;;17.43;4.27;;;27.00;95.70;;;;;;5010687;28;20484;-69
2022/08/01 07:57:24;;;;;;;23.50;5.03;;;27.50;95.30;;;;;;5014508;28;20707;-71
2022/08/01 07:59:51;;;;;;;27.17;5.90;;;27.70;94.80;;;;;;5013623;28;20428;-71
2022/08/01 08:02:16;;;;;;;5.50;3.70;;;28.00;93.70;;;;;;4999256;28;20478;-70
2022/08/01 08:04:42;;;;;;;5.77;4.30;;;27.50;92.30;;;;;;5000131;28;20419;-69
2022/08/01 08:07:08;;;;;;;26.37;4.77;;;27.70;92.70;;;;;;5002994;28;20202;-71
2022/08/01 08:09:34;;;;;;;18.30;4.70;;;27.80;92.20;;;;;;5009041;28;20226;-68
2022/08/01 08:11:59;;;;;;;18.43;5.73;;;27.40;90.90;;;;;;5011674;28;20975;-70
2022/08/01 08:14:25;;;;;;;29.37;5.90;;;27.10;91.30;;;;;;5005270;28;20230;-69
2022/08/01 08:16:52;;;;;;;9.70;4.57;;;27.30;91.20;;;;;;4999279;28;20198;-70
2022/08/01 08:19:18;;;;;;;14.43;4.73;;;27.40;91.40;;;;;;5003852;28;20182;-70
2022/08/01 08:21:44;;;;;;;23.63;5.07;;;27.20;91.10;;;;;;5005883;28;20435;-69
2022/08/01 08:24:26;;;;;;;31.33;5.37;;;27.70;91.40;;;;;;5005632;28;20453;-70
2022/08/01 08:26:55;;;;;;;41.20;6.83;;;27.80;90.60;;;;;;5004482;28;20719;-70
2022/08/01 08:29:22;;;;;;;10.13;4.20;;;27.80;90.50;;;;;;5003542;28;20473;-70
2022/08/01 08:31:48;;;;;;;5.37;3.30;;;28.10;90.60;;;;;;5000699;28;20977;-70
2022/08/01 08:34:15;;;;;;;21.33;5.67;;;27.80;88.20;;;;;;5003497;28;20757;-70
2022/08/01 08:36:41;;;;;;;22.70;5.70;;;27.80;88.40;;;;;;5005364;28;20418;-71
2022/08/01 08:39:07;;;;;;;8.30;3.93;;;28.30;89.00;;;;;;4986548;28;20461;-70
2022/08/01 08:41:33;;;;;;;4.73;3.80;;;28.80;87.70;;;;;;5005427;28;20466;-67
2022/08/01 08:44:03;;;;;;;8.20;4.93;;;28.90;96.30;;;;;;5005646;28;20186;-67
2022/08/01 08:46:34;;;;;;;18.70;4.23;;;29.10;82.80;;;;;;5005959;28;20415;-67
2022/08/01 08:49:03;;;;;;;7.27;3.60;;;29.10;80.50;;;;;;5005078;28;20403;-73
2022/08/01 08:51:31;;;;;;;4.37;3.97;;;28.90;93.20;;;;;;5005972;28;20500;-69
2022/08/01 08:53:57;;;;;;;11.10;5.33;;;28.60;76.20;;;;;;4990654;28;20506;-70
2022/08/01 08:56:29;;;;;;;13.40;3.97;;;28.80;78.10;;;;;;5007700;28;20935;-70
2022/08/01 08:58:57;;;;;;;74.13;8.97;;;29.10;77.20;;;;;;5006869;28;20919;-69
2022/08/01 09:01:22;;;;;;;66.17;7.87;;;29.10;75.30;;;;;;5016816;22;20606;-63
2022/08/01 09:03:48;;;;;;;5.90;3.80;;;28.80;73.10;;;;;;4988493;28;20455;-66
2022/08/01 09:06:14;;;;;;;10.50;4.17;;;28.70;73.40;;;;;;4988284;28;20165;-65
2022/08/01 09:08:40;;;;;;;28.97;4.87;;;28.50;70.30;;;;;;4980244;28;20180;-66
2022/08/01 09:11:05;;;;;;;31.13;6.00;;;28.50;71.50;;;;;;4984430;28;20198;-65
2022/08/01 09:13:31;;;;;;;9.07;3.77;;;28.90;72.80;;;;;;4987840;28;20623;-65
2022/08/01 09:15:58;;;;;;;5.33;3.90;;;28.80;70.70;;;;;;4985693;28;20295;-64
2022/08/01 09:18:44;;;;;;;7.97;5.20;;;28.60;70.60;;;;;;4987234;28;20223;-66
2022/08/01 09:21:17;;;;;;;40.57;6.50;;;28.90;72.60;;;;;;4987644;28;20439;-65
2022/08/01 09:23:51;;;;;;;30.00;5.53;;;28.80;70.10;;;;;;4988759;28;20454;-66
2022/08/01 09:26:20;;;;;;;13.97;4.23;;;28.70;68.50;;;;;;4991765;28;20774;-66
2022/08/01 09:28:48;;;;;;;16.93;4.17;;;28.70;67.60;;;;;;4991295;28;20502;-68
2022/08/01 09:31:16;;;;;;;22.43;5.50;;;28.80;67.50;;;;;;4989880;28;20439;-65
2022/08/01 09:33:50;;;;;;;15.60;5.07;;;28.90;66.60;;;;;;4990453;28;20784;-67
2022/08/01 09:36:17;;;;;;;12.17;4.40;;;28.70;66.00;;;;;;4990729;28;20430;-67
2022/08/01 09:38:43;;;;;;;10.60;3.07;;;28.60;64.70;;;;;;4989130;28;20466;-67
2022/08/01 09:41:11;;;;;;;4.20;2.40;;;28.40;62.20;;;;;;4991176;28;20462;-65
2022/08/01 09:43:36;;;;;;;8.50;2.83;;;28.10;59.60;;;;;;4991821;28;20224;-65
2022/08/01 09:46:13;;;;;;;10.57;3.70;;;28.10;60.50;;;;;;4991729;28;20454;-65
2022/08/01 09:48:39;;;;;;;22.63;3.93;;;28.30;60.90;;;;;;4990181;28;20304;-66
2022/08/01 09:51:07;;;;;;;24.20;4.97;;;28.20;59.30;;;;;;4990303;28;20974;-65
2022/08/01 09:53:47;;;;;;;5.00;2.97;;;28.10;59.40;;;;;;4973511;28;20435;-65
2022/08/01 09:56:13;;;;;;;8.57;3.80;;;28.20;59.90;;;;;;4991051;28;20820;-67
2022/08/01 09:58:59;;;;;;;12.30;4.30;;;28.60;61.00;;;;;;4989968;28;20423;-67
2022/08/01 10:04:51;;;;;;;33.37;4.90;;;28.80;59.60;;;;;;4979753;28;20450;-67
2022/08/01 10:07:18;;;;;;;19.53;3.87;;;29.20;58.60;;;;;;4987843;28;20423;-66
2022/08/01 10:09:45;;;;;;;20.20;4.07;;;29.30;57.10;;;;;;4989542;28;20427;-65
2022/08/01 10:12:13;;;;;;;11.33;3.40;;;29.20;56.30;;;;;;4987152;28;20466;-65
2022/08/01 10:14:40;;;;;;;12.57;3.53;;;29.30;56.50;;;;;;4990347;28;20455;-66
2022/08/01 10:17:09;;;;;;;23.80;4.03;;;29.60;54.40;;;;;;4991031;28;20411;-66
2022/08/01 10:19:37;;;;;;;27.87;5.83;;;29.70;52.20;;;;;;4991110;28;20419;-66
2022/08/01 10:22:07;;;;;;;15.17;3.90;;;29.30;50.70;;;;;;4990728;28;20912;-66
2022/08/01 10:24:38;;;;;;;4.27;3.00;;;29.50;50.60;;;;;;4991150;28;20415;-66
2022/08/01 10:27:07;;;;;;;8.27;3.80;;;29.30;50.10;;;;;;4990423;28;20412;-65
2022/08/01 10:29:36;;;;;;;15.00;4.90;;;29.50;49.40;;;;;;4990439;28;20404;-66
2022/08/01 10:32:06;;;;;;;4.13;3.10;;;29.60;48.00;;;;;;4988145;28;20446;-66
2022/08/01 10:34:33;;;;;;;18.83;4.60;;;29.60;46.50;;;;;;4990621;28;20408;-66
2022/08/01 10:37:00;;;;;;;6.80;3.70;;;29.20;44.80;;;;;;4989492;28;20454;-66
2022/08/01 10:39:28;;;;;;;11.60;4.13;;;29.20;45.30;;;;;;4989894;28;20428;-66
2022/08/01 10:41:55;;;;;;;20.30;4.00;;;29.40;44.80;;;;;;4990409;28;20431;-66
2022/08/01 10:44:23;;;;;;;20.57;3.60;;;29.30;44.30;;;;;;4990795;28;20494;-66
2022/08/01 10:47:04;;;;;;;8.13;3.67;;;29.50;44.10;;;;;;4990762;28;20407;-66
2022/08/01 10:49:32;;;;;;;14.07;4.00;;;29.70;43.70;;;;;;4981847;28;20407;-65
2022/08/01 10:51:58;;;;;;;8.20;3.90;;;29.50;42.70;;;;;;4990048;28;20431;-65
2022/08/01 10:54:26;;;;;;;8.50;4.20;;;29.70;42.90;;;;;;4990970;28;20411;-65
2022/08/01 10:56:53;;;;;;;130.40;14.93;;;29.80;41.90;;;;;;4990335;28;21117;-64
2022/08/01 10:59:27;;;;;;;15.03;3.50;;;29.80;41.50;;;;;;4989565;28;20412;-66
2022/08/01 11:02:03;;;;;;;11.10;3.60;;;29.80;40.30;;;;;;5005795;28;20826;-66
2022/08/01 11:04:58;;;;;;;6.03;3.50;;;29.40;40.40;;;;;;5010127;28;20383;-66
2022/08/01 11:11:29;;;;;;;3.50;3.20;;;29.00;37.50;;;;;;4999355;28;20896;-66
2022/08/01 11:17:33;;;;;;;26.13;4.97;;;28.80;38.00;;;;;;4989348;28;20387;-64
2022/08/01 11:20:11;;;;;;;4.17;2.90;;;29.10;38.20;;;;;;4988457;28;20975;-65
2022/08/01 11:22:59;;;;;;;5.60;3.60;;;29.30;38.00;;;;;;4989482;28;20483;-65
2022/08/01 11:25:37;;;;;;;9.10;3.47;;;29.40;37.10;;;;;;4989641;28;20407;-65
2022/08/01 11:28:24;;;;;;;9.03;3.07;;;29.70;37.30;;;;;;4989510;28;20485;-66
2022/08/01 11:31:15;;;;;;;21.87;4.10;;;29.80;36.20;;;;;;4989910;28;20410;-66
2022/08/01 11:33:41;;;;;;;27.53;5.00;;;29.80;35.10;;;;;;4970615;28;20876;-65
2022/08/01 11:36:13;;;;;;;11.40;4.40;;;29.50;34.50;;;;;;4989487;28;20430;-65
2022/08/01 11:38:47;;;;;;;19.10;3.87;;;29.20;34.00;;;;;;4989213;28;20629;-66
2022/08/01 11:41:24;;;;;;;11.43;3.20;;;29.00;33.70;;;;;;4989357;28;20439;-66
2022/08/01 11:44:11;;;;;;;8.23;3.33;;;29.10;32.60;;;;;;4989531;28;20527;-64
2022/08/01 11:46:52;;;;;;;11.20;3.50;;;29.00;32.10;;;;;;4989538;28;20790;-66
2022/08/01 11:49:36;;;;;;;17.67;4.47;;;29.00;33.50;;;;;;4989358;28;20396;-65
2022/08/01 11:52:15;;;;;;;25.80;4.90;;;29.20;34.00;;;;;;4989068;28;20818;-65
2022/08/01 11:54:42;;;;;;;25.17;5.43;;;29.20;33.90;;;;;;4989182;28;20407;-66
2022/08/01 11:57:14;;;;;;;15.80;3.83;;;29.20;33.40;;;;;;4989501;28;20430;-66
2022/08/01 11:59:41;;;;;;;30.57;5.53;;;28.90;32.00;;;;;;4989153;28;20821;-65
2022/08/01 12:02:16;;;;;;;11.90;3.50;;;28.70;33.30;;;;;;5006328;28;20470;-66
2022/08/01 12:05:07;;;;;;;29.97;5.57;;;28.40;34.30;;;;;;5009217;28;20406;-66
2022/08/01 12:07:34;;;;;;;14.13;3.80;;;28.40;34.90;;;;;;4997057;28;20481;-67
2022/08/01 12:10:06;;;;;;;42.07;6.80;;;28.20;35.60;;;;;;5005962;28;20499;-65
2022/08/01 12:12:36;;;;;;;14.07;3.93;;;28.10;36.40;;;;;;4989654;28;20460;-66
2022/08/01 12:15:08;;;;;;;13.47;4.10;;;27.80;40.30;;;;;;4989699;28;20410;-64
2022/08/01 12:17:37;;;;;;;12.27;4.40;;;27.40;45.20;;;;;;4989514;28;20479;-68
2022/08/01 12:20:06;;;;;;;29.37;5.20;;;27.00;47.70;;;;;;4988906;28;20438;-66
2022/08/01 12:22:32;;;;;;;7.93;3.90;;;26.90;51.60;;;;;;4988949;28;20454;-66
2022/08/01 12:25:11;;;;;;;12.93;4.37;;;26.70;59.70;;;;;;4989336;28;20412;-67
2022/08/01 12:27:39;;;;;;;42.60;7.30;;;26.70;61.20;;;;;;4988435;28;20903;-66
2022/08/01 12:30:11;;;;;;;21.00;5.50;;;26.80;69.30;;;;;;4988456;28;20408;-67
2022/08/01 12:32:40;;;;;;;41.73;7.87;;;26.90;72.50;;;;;;4984489;28;20455;-64
2022/08/01 12:35:09;;;;;;;40.40;7.37;;;27.00;75.30;;;;;;4988878;28;20419;-66
2022/08/01 12:37:46;;;;;;;37.30;6.10;;;26.50;78.00;;;;;;4988267;28;20412;-65
2022/08/01 12:40:14;;;;;;;32.63;6.53;;;26.50;83.20;;;;;;4983267;28;20869;-65
2022/08/01 12:42:41;;;;;;;22.43;5.00;;;26.60;83.40;;;;;;4986907;28;20463;-67
2022/08/01 12:45:12;;;;;;;49.07;7.83;;;26.70;86.00;;;;;;4985381;28;20435;-67
2022/08/01 12:47:39;;;;;;;36.77;7.03;;;26.50;89.20;;;;;;4986217;28;20832;-67
2022/08/01 12:50:08;;;;;;;9.23;3.83;;;26.30;91.30;;;;;;4987954;28;20407;-67
2022/08/01 12:52:34;;;;;;;20.13;4.63;;;26.20;94.50;;;;;;4988677;28;20431;-65
2022/08/01 12:55:00;;;;;;;18.33;4.10;;;26.30;96.80;;;;;;4988865;28;20427;-66
2022/08/01 12:57:26;;;;;;;26.80;6.80;;;26.30;97.90;;;;;;4988049;28;20919;-67
2022/08/01 13:00:09;;;;;;;12.80;4.70;;;26.20;99.50;;;;;;4990978;28;20419;-65